Royal — WDD3653 — position and weather

sailwx.info

Track history (hours):
 
Tides and Currents Weather Stations Pressure Air Temp Water Temp Dewpoint Dewpoint Depression Visibility Wind Speed Wind Dir Waves Ship Positions

Royal

Owner: GulfMark Americas, Inc., Saint Rose, LA. More information available from US FCC via Universal Licensing System and Coast Guard Vessel Documentation Center.

Last reported at 2016-Dec-21 14:06 UTC. Time now 2017-Jan-23 18:59 UTC.
Position N 29°39' W 091°06'.
Warning: this ship's position is 33 days out of date.

Length 64 m; draft 3 m.

Type: Cargo ship. MMSI: 366964490.

Date/timePositionNaut miles runAvg speedWind from/ knotsBaromVisibWave heightAir tempDewpointWater temp
2016-Dec-21 14:06N 29°39' W 091°06'0 0.0
2016-Dec-21 12:14N 29°39' W 091°06'  
2016-Dec-15 10:34N 29°30' W 092°19'4 3.5
2016-Dec-15 09:33N 29°33' W 092°18'5 5.3
2016-Dec-15 08:34N 29°38' W 092°16'6 6.3
2016-Dec-15 07:34N 29°44' W 092°14'6 5.8
2016-Dec-15 06:34N 29°47' W 092°08'4 4.2
2016-Dec-15 05:34N 29°49' W 092°04'4 4.4
2016-Dec-15 04:34N 29°50' W 091°59'5 4.9
2016-Dec-15 03:33N 29°51' W 091°53'4 3.4
2016-Dec-15 02:23N 29°54' W 091°50'2 1.1
2016-Dec-15 00:33N 29°56' W 091°50'0 0.0
2016-Dec-14 23:33N 29°56' W 091°50'5 2.3
2016-Dec-14 21:15N 29°51' W 091°51'5 6.9
2016-Dec-14 20:34N 29°51' W 091°56'7 6.6
2016-Dec-14 19:34N 29°49' W 092°03'6 6.1
2016-Dec-14 18:34N 29°47' W 092°10'7 6.6
2016-Dec-14 17:34N 29°42' W 092°15'6 6.2
2016-Dec-14 16:34N 29°36' W 092°18'3 2.7
2016-Dec-14 15:34N 29°33' W 092°18'2 1.3
2016-Dec-14 14:18N 29°32' W 092°19'2 2.4
2016-Dec-14 13:31N 29°30' W 092°19'  
Track history (hours):
 
Tides and Currents Weather Stations Pressure Air Temp Water Temp Dewpoint Dewpoint Depression Visibility Wind Speed Wind Dir Waves Ship Positions

Royal

Owner: GulfMark Americas, Inc., Saint Rose, LA. More information available from US FCC via Universal Licensing System and Coast Guard Vessel Documentation Center.

Last reported at 2016-Dec-21 14:06 UTC. Time now 2017-Jan-23 18:59 UTC.
Position N 29°39' W 091°06'.
Warning: this ship's position is 33 days out of date.

Length 64 m; draft 3 m.

Type: Cargo ship. MMSI: 366964490.

Date/timePositionNaut miles runAvg speedWind from/ knotsBaromVisibWave heightAir tempDewpointWater temp
2016-Dec-21 14:06N 29°39' W 091°06'0 0.0
2016-Dec-21 12:14N 29°39' W 091°06'  
2016-Dec-15 10:34N 29°30' W 092°19'4 3.5
2016-Dec-15 09:33N 29°33' W 092°18'5 5.3
2016-Dec-15 08:34N 29°38' W 092°16'6 6.3
2016-Dec-15 07:34N 29°44' W 092°14'6 5.8
2016-Dec-15 06:34N 29°47' W 092°08'4 4.2
2016-Dec-15 05:34N 29°49' W 092°04'4 4.4
2016-Dec-15 04:34N 29°50' W 091°59'5 4.9
2016-Dec-15 03:33N 29°51' W 091°53'4 3.4
2016-Dec-15 02:23N 29°54' W 091°50'2 1.1
2016-Dec-15 00:33N 29°56' W 091°50'0 0.0
2016-Dec-14 23:33N 29°56' W 091°50'5 2.3
2016-Dec-14 21:15N 29°51' W 091°51'5 6.9
2016-Dec-14 20:34N 29°51' W 091°56'7 6.6
2016-Dec-14 19:34N 29°49' W 092°03'6 6.1
2016-Dec-14 18:34N 29°47' W 092°10'7 6.6
2016-Dec-14 17:34N 29°42' W 092°15'6 6.2
2016-Dec-14 16:34N 29°36' W 092°18'3 2.7
2016-Dec-14 15:34N 29°33' W 092°18'2 1.3
2016-Dec-14 14:18N 29°32' W 092°19'2 2.4
2016-Dec-14 13:31N 29°30' W 092°19'  

Dump ship's entire track history